sensor_id;sensor_type;location;lat;lon;timestamp;pressure;altitude;pressure_sealevel;temperature;humidity
60371;BME280;48550;40.588;49.684;2023-04-19T00:00:25;101986.22;;;9.67;100.00
60371;BME280;48550;40.588;49.684;2023-04-19T00:02:51;101979.81;;;9.68;100.00
60371;BME280;48550;40.588;49.684;2023-04-19T00:05:18;101973.84;;;9.66;100.00
60371;BME280;48550;40.588;49.684;2023-04-19T00:07:46;101972.97;;;9.66;100.00
60371;BME280;48550;40.588;49.684;2023-04-19T00:10:12;101964.75;;;9.67;100.00
60371;BME280;48550;40.588;49.684;2023-04-19T00:12:37;101969.09;;;9.68;100.00
60371;BME280;48550;40.588;49.684;2023-04-19T00:15:04;101963.34;;;9.71;100.00
60371;BME280;48550;40.588;49.684;2023-04-19T00:17:30;101962.31;;;9.72;100.00
60371;BME280;48550;40.588;49.684;2023-04-19T00:19:56;101959.50;;;9.80;100.00
60371;BME280;48550;40.588;49.684;2023-04-19T00:22:22;101953.16;;;9.95;100.00
60371;BME280;48550;40.588;49.684;2023-04-19T00:24:48;101948.25;;;9.98;100.00
60371;BME280;48550;40.588;49.684;2023-04-19T00:27:13;101939.19;;;10.06;100.00
60371;BME280;48550;40.588;49.684;2023-04-19T00:29:39;101948.09;;;10.13;100.00
60371;BME280;48550;40.588;49.684;2023-04-19T00:32:05;101936.97;;;10.16;100.00
60371;BME280;48550;40.588;49.684;2023-04-19T00:34:31;101932.22;;;10.18;100.00
60371;BME280;48550;40.588;49.684;2023-04-19T00:36:56;101936.97;;;10.16;100.00
60371;BME280;48550;40.588;49.684;2023-04-19T00:39:22;101923.56;;;10.16;100.00
60371;BME280;48550;40.588;49.684;2023-04-19T00:41:48;101914.69;;;10.15;100.00
60371;BME280;48550;40.588;49.684;2023-04-19T00:44:14;101917.56;;;10.14;100.00
60371;BME280;48550;40.588;49.684;2023-04-19T00:46:40;101914.44;;;10.10;100.00
60371;BME280;48550;40.588;49.684;2023-04-19T00:49:06;101920.03;;;10.09;100.00
60371;BME280;48550;40.588;49.684;2023-04-19T00:51:33;101924.94;;;10.05;100.00
60371;BME280;48550;40.588;49.684;2023-04-19T00:53:59;101921.84;;;10.02;100.00
60371;BME280;48550;40.588;49.684;2023-04-19T00:56:26;101919.56;;;9.99;100.00
60371;BME280;48550;40.588;49.684;2023-04-19T00:58:52;101917.50;;;10.01;100.00
60371;BME280;48550;40.588;49.684;2023-04-19T01:01:19;101916.25;;;9.97;100.00
60371;BME280;48550;40.588;49.684;2023-04-19T01:03:45;101924.72;;;10.00;100.00
60371;BME280;48550;40.588;49.684;2023-04-19T01:06:11;101915.88;;;10.06;100.00
60371;BME280;48550;40.588;49.684;2023-04-19T01:08:37;101911.34;;;10.07;100.00
60371;BME280;48550;40.588;49.684;2023-04-19T01:11:04;101906.38;;;10.04;100.00
60371;BME280;48550;40.588;49.684;2023-04-19T01:13:30;101909.09;;;10.10;100.00
60371;BME280;48550;40.588;49.684;2023-04-19T01:15:56;101898.34;;;10.10;100.00
60371;BME280;48550;40.588;49.684;2023-04-19T01:18:22;101900.84;;;10.12;100.00
60371;BME280;48550;40.588;49.684;2023-04-19T01:20:53;101888.47;;;10.11;100.00
60371;BME280;48550;40.588;49.684;2023-04-19T01:23:19;101898.97;;;10.12;100.00
60371;BME280;48550;40.588;49.684;2023-04-19T01:25:45;101892.78;;;10.12;100.00
60371;BME280;48550;40.588;49.684;2023-04-19T01:28:12;101900.00;;;10.11;100.00
60371;BME280;48550;40.588;49.684;2023-04-19T01:30:37;101898.34;;;10.10;100.00
60371;BME280;48550;40.588;49.684;2023-04-19T01:33:03;101884.53;;;10.07;100.00
60371;BME280;48550;40.588;49.684;2023-04-19T01:35:28;101874.81;;;10.06;100.00
60371;BME280;48550;40.588;49.684;2023-04-19T01:37:54;101875.66;;;10.06;100.00
60371;BME280;48550;40.588;49.684;2023-04-19T01:40:23;101865.31;;;10.03;100.00
60371;BME280;48550;40.588;49.684;2023-04-19T01:42:49;101865.31;;;10.03;100.00
60371;BME280;48550;40.588;49.684;2023-04-19T01:45:15;101870.47;;;9.98;100.00
60371;BME280;48550;40.588;49.684;2023-04-19T01:47:40;101878.75;;;10.10;100.00
60371;BME280;48550;40.588;49.684;2023-04-19T01:50:06;101870.72;;;10.10;100.00
60371;BME280;48550;40.588;49.684;2023-04-19T01:52:32;101879.78;;;10.09;100.00
60371;BME280;48550;40.588;49.684;2023-04-19T01:54:58;101875.03;;;10.11;100.00
60371;BME280;48550;40.588;49.684;2023-04-19T01:57:24;101879.78;;;10.09;100.00
60371;BME280;48550;40.588;49.684;2023-04-19T01:59:49;101868.03;;;10.10;100.00
60371;BME280;48550;40.588;49.684;2023-04-19T02:02:15;101867.63;;;10.13;100.00
60371;BME280;48550;40.588;49.684;2023-04-19T02:04:41;101864.53;;;10.16;100.00
60371;BME280;48550;40.588;49.684;2023-04-19T02:07:08;101872.59;;;10.16;100.00
60371;BME280;48550;40.588;49.684;2023-04-19T02:09:37;101873.41;;;10.16;100.00
60371;BME280;48550;40.588;49.684;2023-04-19T02:12:04;101877.75;;;10.17;100.00
60371;BME280;48550;40.588;49.684;2023-04-19T02:14:30;101879.22;;;10.20;100.00
60371;BME280;48550;40.588;49.684;2023-04-19T02:16:57;101884.00;;;10.25;100.00
60371;BME280;48550;40.588;49.684;2023-04-19T02:19:22;101880.91;;;10.28;100.00
60371;BME280;48550;40.588;49.684;2023-04-19T02:21:48;101880.97;;;10.47;100.00
60371;BME280;48550;40.588;49.684;2023-04-19T02:24:14;101886.97;;;10.49;100.00
60371;BME280;48550;40.588;49.684;2023-04-19T02:26:40;101884.31;;;10.63;100.00
60371;BME280;48550;40.588;49.684;2023-04-19T02:29:06;101884.94;;;10.85;100.00
60371;BME280;48550;40.588;49.684;2023-04-19T02:31:32;101888.88;;;10.82;100.00
60371;BME280;48550;40.588;49.684;2023-04-19T02:33:57;101889.47;;;10.77;100.00
60371;BME280;48550;40.588;49.684;2023-04-19T02:36:23;101884.31;;;10.82;100.00
60371;BME280;48550;40.588;49.684;2023-04-19T02:38:49;101880.81;;;11.08;100.00
60371;BME280;48550;40.588;49.684;2023-04-19T02:41:14;101894.56;;;11.71;100.00
60371;BME280;48550;40.588;49.684;2023-04-19T02:43:40;101888.31;;;12.42;100.00
60371;BME280;48550;40.588;49.684;2023-04-19T02:46:06;101890.63;;;13.26;100.00
60371;BME280;48550;40.588;49.684;2023-04-19T02:48:32;101895.72;;;13.78;100.00
60371;BME280;48550;40.588;49.684;2023-04-19T02:50:57;101881.38;;;13.95;100.00
60371;BME280;48550;40.588;49.684;2023-04-19T02:53:23;101883.16;;;14.20;100.00
60371;BME280;48550;40.588;49.684;2023-04-19T02:55:49;101886.19;;;14.42;100.00
60371;BME280;48550;40.588;49.684;2023-04-19T02:58:15;101884.44;;;14.77;100.00
60371;BME280;48550;40.588;49.684;2023-04-19T03:00:41;101886.53;;;14.75;100.00
60371;BME280;48550;40.588;49.684;2023-04-19T03:03:06;101874.25;;;14.91;100.00
60371;BME280;48550;40.588;49.684;2023-04-19T03:05:33;101870.63;;;15.32;100.00
60371;BME280;48550;40.588;49.684;2023-04-19T03:07:59;101867.28;;;15.88;100.00
60371;BME280;48550;40.588;49.684;2023-04-19T03:10:25;101865.00;;;16.09;99.80
60371;BME280;48550;40.588;49.684;2023-04-19T03:12:51;101865.81;;;16.83;88.97
60371;BME280;48550;40.588;49.684;2023-04-19T03:15:17;101870.03;;;16.17;97.81
60371;BME280;48550;40.588;49.684;2023-04-19T03:17:44;101872.06;;;16.83;93.66
60371;BME280;48550;40.588;49.684;2023-04-19T03:20:10;101870.19;;;16.67;95.43
60371;BME280;48550;40.588;49.684;2023-04-19T03:22:36;101867.72;;;16.66;96.88
60371;BME280;48550;40.588;49.684;2023-04-19T03:25:03;101868.88;;;16.87;91.17
60371;BME280;48550;40.588;49.684;2023-04-19T03:27:30;101872.63;;;17.02;90.06
60371;BME280;48550;40.588;49.684;2023-04-19T03:29:56;101872.06;;;16.10;100.00
60371;BME280;48550;40.588;49.684;2023-04-19T03:32:21;101866.06;;;15.21;100.00
60371;BME280;48550;40.588;49.684;2023-04-19T03:34:47;101859.84;;;14.25;100.00
60371;BME280;48550;40.588;49.684;2023-04-19T03:37:13;101867.84;;;13.65;100.00
60371;BME280;48550;40.588;49.684;2023-04-19T03:39:38;101861.19;;;13.25;100.00
60371;BME280;48550;40.588;49.684;2023-04-19T03:42:04;101859.03;;;13.33;100.00
60371;BME280;48550;40.588;49.684;2023-04-19T03:44:31;101868.06;;;13.21;100.00
60371;BME280;48550;40.588;49.684;2023-04-19T03:46:57;101864.31;;;13.22;100.00
60371;BME280;48550;40.588;49.684;2023-04-19T03:49:24;101859.97;;;13.46;100.00
60371;BME280;48550;40.588;49.684;2023-04-19T03:51:49;101858.78;;;13.60;100.00
60371;BME280;48550;40.588;49.684;2023-04-19T03:54:15;101867.69;;;13.79;100.00
60371;BME280;48550;40.588;49.684;2023-04-19T03:56:41;101857.13;;;13.77;100.00
60371;BME280;48550;40.588;49.684;2023-04-19T03:59:08;101858.59;;;13.36;100.00
60371;BME280;48550;40.588;49.684;2023-04-19T04:01:34;101865.84;;;13.36;100.00
60371;BME280;48550;40.588;49.684;2023-04-19T04:03:59;101867.00;;;13.47;100.00
60371;BME280;48550;40.588;49.684;2023-04-19T04:06:25;101871.44;;;13.59;100.00
60371;BME280;48550;40.588;49.684;2023-04-19T04:08:51;101865.75;;;13.67;100.00
60371;BME280;48550;40.588;49.684;2023-04-19T04:11:17;101861.53;;;13.72;100.00
60371;BME280;48550;40.588;49.684;2023-04-19T04:13:43;101861.84;;;13.82;100.00
60371;BME280;48550;40.588;49.684;2023-04-19T04:16:10;101862.28;;;13.79;100.00
60371;BME280;48550;40.588;49.684;2023-04-19T04:18:36;101842.72;;;13.83;100.00
60371;BME280;48550;40.588;49.684;2023-04-19T04:21:03;101845.97;;;14.04;100.00
60371;BME280;48550;40.588;49.684;2023-04-19T04:23:28;101844.44;;;14.26;100.00
60371;BME280;48550;40.588;49.684;2023-04-19T04:25:58;101839.63;;;13.98;100.00
60371;BME280;48550;40.588;49.684;2023-04-19T04:28:28;101838.44;;;13.94;100.00
60371;BME280;48550;40.588;49.684;2023-04-19T04:30:55;101833.84;;;14.13;100.00
60371;BME280;48550;40.588;49.684;2023-04-19T04:33:25;101837.44;;;14.07;100.00
60371;BME280;48550;40.588;49.684;2023-04-19T04:35:52;101841.25;;;14.17;100.00
60371;BME280;48550;40.588;49.684;2023-04-19T04:38:18;101837.97;;;14.15;100.00
60371;BME280;48550;40.588;49.684;2023-04-19T04:40:54;101835.63;;;14.00;100.00
60371;BME280;48550;40.588;49.684;2023-04-19T04:43:24;101822.47;;;13.92;100.00
60371;BME280;48550;40.588;49.684;2023-04-19T04:45:53;101826.16;;;14.10;100.00
60371;BME280;48550;40.588;49.684;2023-04-19T04:48:19;101828.44;;;14.43;100.00
60371;BME280;48550;40.588;49.684;2023-04-19T04:50:45;101831.00;;;14.91;100.00
60371;BME280;48550;40.588;49.684;2023-04-19T04:53:11;101826.97;;;15.75;100.00
60371;BME280;48550;40.588;49.684;2023-04-19T04:55:37;101832.28;;;16.56;100.00
60371;BME280;48550;40.588;49.684;2023-04-19T04:58:02;101841.31;;;17.67;85.50
60371;BME280;48550;40.588;49.684;2023-04-19T05:00:30;101832.72;;;18.78;72.96
60371;BME280;48550;40.588;49.684;2023-04-19T05:02:56;101826.72;;;17.73;80.50
60371;BME280;48550;40.588;49.684;2023-04-19T05:05:22;101835.25;;;18.03;81.14
60371;BME280;48550;40.588;49.684;2023-04-19T05:07:48;101821.91;;;18.02;78.82
60371;BME280;48550;40.588;49.684;2023-04-19T05:10:13;101833.03;;;19.71;66.96
60371;BME280;48550;40.588;49.684;2023-04-19T05:12:40;101825.38;;;20.60;60.59
60371;BME280;48550;40.588;49.684;2023-04-19T05:15:07;101824.69;;;19.97;62.52
60371;BME280;48550;40.588;49.684;2023-04-19T05:17:33;101824.97;;;19.39;66.27
60371;BME280;48550;40.588;49.684;2023-04-19T05:19:59;101827.81;;;19.17;65.39
60371;BME280;48550;40.588;49.684;2023-04-19T05:22:25;101829.69;;;19.11;67.47
60371;BME280;48550;40.588;49.684;2023-04-19T05:24:50;101816.22;;;18.89;69.00
60371;BME280;48550;40.588;49.684;2023-04-19T05:27:16;101815.09;;;19.27;66.08
60371;BME280;48550;40.588;49.684;2023-04-19T05:29:42;101818.56;;;19.18;66.30
60371;BME280;48550;40.588;49.684;2023-04-19T05:32:08;101811.47;;;17.89;78.40
60371;BME280;48550;40.588;49.684;2023-04-19T05:34:35;101802.50;;;18.15;74.04
60371;BME280;48550;40.588;49.684;2023-04-19T05:37:02;101797.16;;;17.98;76.80
60371;BME280;48550;40.588;49.684;2023-04-19T05:39:27;101800.34;;;16.91;87.79
60371;BME280;48550;40.588;49.684;2023-04-19T05:41:53;101805.00;;;17.12;84.82
60371;BME280;48550;40.588;49.684;2023-04-19T05:44:19;101783.00;;;16.92;87.95
60371;BME280;48550;40.588;49.684;2023-04-19T05:46:45;101798.41;;;17.08;84.30
60371;BME280;48550;40.588;49.684;2023-04-19T05:49:11;101794.00;;;17.63;81.36
60371;BME280;48550;40.588;49.684;2023-04-19T05:51:36;101796.53;;;17.47;81.25
60371;BME280;48550;40.588;49.684;2023-04-19T05:54:02;101797.84;;;18.42;72.55
60371;BME280;48550;40.588;49.684;2023-04-19T05:56:28;101796.75;;;18.65;73.61
60371;BME280;48550;40.588;49.684;2023-04-19T05:58:54;101803.69;;;19.88;64.87
60371;BME280;48550;40.588;49.684;2023-04-19T06:01:24;101806.66;;;19.76;63.77
60371;BME280;48550;40.588;49.684;2023-04-19T06:03:50;101801.31;;;20.07;60.75
60371;BME280;48550;40.588;49.684;2023-04-19T06:06:18;101783.84;;;20.08;62.42
60371;BME280;48550;40.588;49.684;2023-04-19T06:08:44;101788.25;;;20.29;59.38
60371;BME280;48550;40.588;49.684;2023-04-19T06:11:10;101789.34;;;20.69;58.87
60371;BME280;48550;40.588;49.684;2023-04-19T06:13:35;101792.66;;;20.81;56.36
60371;BME280;48550;40.588;49.684;2023-04-19T06:16:02;101787.69;;;20.22;60.18
60371;BME280;48550;40.588;49.684;2023-04-19T06:18:28;101786.25;;;19.89;61.54
60371;BME280;48550;40.588;49.684;2023-04-19T06:20:54;101792.78;;;19.88;60.26
60371;BME280;48550;40.588;49.684;2023-04-19T06:23:19;101792.31;;;21.13;56.28
60371;BME280;48550;40.588;49.684;2023-04-19T06:25:45;101804.63;;;20.95;55.47
60371;BME280;48550;40.588;49.684;2023-04-19T06:28:13;101805.75;;;20.84;56.55
60371;BME280;48550;40.588;49.684;2023-04-19T06:30:39;101796.94;;;21.22;55.97
60371;BME280;48550;40.588;49.684;2023-04-19T06:33:05;101811.75;;;20.86;57.40
60371;BME280;48550;40.588;49.684;2023-04-19T06:35:31;101799.63;;;19.95;59.83
60371;BME280;48550;40.588;49.684;2023-04-19T06:37:58;101804.78;;;19.97;60.36
60371;BME280;48550;40.588;49.684;2023-04-19T06:40:25;101798.38;;;20.49;57.61
60371;BME280;48550;40.588;49.684;2023-04-19T06:42:53;101787.16;;;20.20;59.41
60371;BME280;48550;40.588;49.684;2023-04-19T06:45:18;101783.34;;;20.31;57.64
60371;BME280;48550;40.588;49.684;2023-04-19T06:47:44;101777.91;;;20.56;57.81
60371;BME280;48550;40.588;49.684;2023-04-19T06:50:10;101772.19;;;20.58;56.38
60371;BME280;48550;40.588;49.684;2023-04-19T06:52:36;101768.38;;;20.59;56.78
60371;BME280;48550;40.588;49.684;2023-04-19T06:55:02;101773.75;;;20.03;60.11
60371;BME280;48550;40.588;49.684;2023-04-19T06:57:28;101762.09;;;20.53;55.71
60371;BME280;48550;40.588;49.684;2023-04-19T06:59:54;101760.31;;;21.34;52.95
60371;BME280;48550;40.588;49.684;2023-04-19T07:02:20;101767.53;;;20.23;58.21
60371;BME280;48550;40.588;49.684;2023-04-19T07:04:46;101765.34;;;20.76;55.46
60371;BME280;48550;40.588;49.684;2023-04-19T07:07:12;101752.00;;;20.44;56.84
60371;BME280;48550;40.588;49.684;2023-04-19T07:09:38;101766.44;;;20.80;55.80
60371;BME280;48550;40.588;49.684;2023-04-19T07:12:05;101754.69;;;20.13;57.76
60371;BME280;48550;40.588;49.684;2023-04-19T07:14:31;101755.00;;;20.42;56.78
60371;BME280;48550;40.588;49.684;2023-04-19T07:16:57;101751.69;;;20.96;55.46
60371;BME280;48550;40.588;49.684;2023-04-19T07:19:22;101758.78;;;20.92;55.28
60371;BME280;48550;40.588;49.684;2023-04-19T07:21:50;101735.25;;;21.11;54.39
60371;BME280;48550;40.588;49.684;2023-04-19T07:24:16;101735.75;;;21.29;54.77
60371;BME280;48550;40.588;49.684;2023-04-19T07:26:41;101725.53;;;21.99;51.02
60371;BME280;48550;40.588;49.684;2023-04-19T07:29:07;101723.34;;;21.51;52.34
60371;BME280;48550;40.588;49.684;2023-04-19T07:31:33;101730.13;;;21.69;53.13
60371;BME280;48550;40.588;49.684;2023-04-19T07:33:59;101727.94;;;20.97;54.96
60371;BME280;48550;40.588;49.684;2023-04-19T07:36:24;101722.50;;;19.90;59.77
60371;BME280;48550;40.588;49.684;2023-04-19T07:38:50;101711.34;;;19.14;61.19
60371;BME280;48550;40.588;49.684;2023-04-19T07:41:16;101704.28;;;18.65;64.17
60371;BME280;48550;40.588;49.684;2023-04-19T07:43:42;101701.31;;;18.67;65.69
60371;BME280;48550;40.588;49.684;2023-04-19T07:46:12;101691.34;;;18.88;66.91
60371;BME280;48550;40.588;49.684;2023-04-19T07:48:38;101691.34;;;18.88;66.45
60371;BME280;48550;40.588;49.684;2023-04-19T07:51:11;101692.13;;;18.78;67.73
60371;BME280;48550;40.588;49.684;2023-04-19T07:53:38;101683.09;;;18.35;71.54
60371;BME280;48550;40.588;49.684;2023-04-19T07:56:05;101676.53;;;18.31;72.59
60371;BME280;48550;40.588;49.684;2023-04-19T07:58:31;101680.84;;;18.59;72.26
60371;BME280;48550;40.588;49.684;2023-04-19T08:00:57;101686.69;;;18.46;74.69
60371;BME280;48550;40.588;49.684;2023-04-19T08:03:23;101674.09;;;18.62;74.70
60371;BME280;48550;40.588;49.684;2023-04-19T08:05:49;101670.53;;;18.61;75.58
60371;BME280;48550;40.588;49.684;2023-04-19T08:08:15;101672.59;;;18.49;76.71
60371;BME280;48550;40.588;49.684;2023-04-19T08:10:41;101673.16;;;18.56;75.17
60371;BME280;48550;40.588;49.684;2023-04-19T08:13:06;101670.13;;;18.48;75.70
60371;BME280;48550;40.588;49.684;2023-04-19T08:15:33;101657.03;;;18.39;77.46
60371;BME280;48550;40.588;49.684;2023-04-19T08:17:59;101670.78;;;18.23;78.41
60371;BME280;48550;40.588;49.684;2023-04-19T08:20:25;101658.38;;;18.37;79.20
60371;BME280;48550;40.588;49.684;2023-04-19T08:22:51;101658.19;;;18.49;77.86
60371;BME280;48550;40.588;49.684;2023-04-19T08:25:18;101659.16;;;18.32;80.28
60371;BME280;48550;40.588;49.684;2023-04-19T08:27:44;101664.03;;;18.30;80.28
60371;BME280;48550;40.588;49.684;2023-04-19T08:30:10;101657.91;;;18.50;78.57
60371;BME280;48550;40.588;49.684;2023-04-19T08:32:36;101654.44;;;19.07;72.79
60371;BME280;48550;40.588;49.684;2023-04-19T08:35:01;101663.75;;;19.26;66.87
60371;BME280;48550;40.588;49.684;2023-04-19T08:37:28;101651.56;;;19.34;70.15
60371;BME280;48550;40.588;49.684;2023-04-19T08:39:54;101654.41;;;19.02;65.01
60371;BME280;48550;40.588;49.684;2023-04-19T08:42:19;101652.22;;;18.94;64.87
60371;BME280;48550;40.588;49.684;2023-04-19T08:44:46;101637.03;;;19.08;64.54
60371;BME280;48550;40.588;49.684;2023-04-19T08:47:13;101644.13;;;19.19;63.31
60371;BME280;48550;40.588;49.684;2023-04-19T08:49:40;101639.88;;;19.39;61.35
60371;BME280;48550;40.588;49.684;2023-04-19T08:52:08;101638.22;;;19.38;62.27
60371;BME280;48550;40.588;49.684;2023-04-19T08:54:37;101632.25;;;19.46;63.10
60371;BME280;48550;40.588;49.684;2023-04-19T08:57:04;101636.94;;;19.65;62.97
60371;BME280;48550;40.588;49.684;2023-04-19T08:59:29;101642.66;;;19.74;63.29
60371;BME280;48550;40.588;49.684;2023-04-19T09:02:04;101636.13;;;19.75;64.53
60371;BME280;48550;40.588;49.684;2023-04-19T09:04:30;101627.34;;;19.38;65.74
60371;BME280;48550;40.588;49.684;2023-04-19T09:06:55;101621.56;;;19.29;69.27
60371;BME280;48550;40.588;49.684;2023-04-19T09:09:23;101625.13;;;19.29;68.55
60371;BME280;48550;40.588;49.684;2023-04-19T09:11:49;101615.66;;;19.47;66.30
60371;BME280;48550;40.588;49.684;2023-04-19T09:14:17;101614.88;;;19.57;65.49
60371;BME280;48550;40.588;49.684;2023-04-19T09:16:44;101610.94;;;19.17;67.87
60371;BME280;48550;40.588;49.684;2023-04-19T09:19:10;101617.47;;;19.21;67.84
60371;BME280;48550;40.588;49.684;2023-04-19T09:21:40;101615.31;;;19.28;67.02
60371;BME280;48550;40.588;49.684;2023-04-19T09:24:07;101596.25;;;19.28;65.19
60371;BME280;48550;40.588;49.684;2023-04-19T09:26:33;101605.75;;;19.16;66.25
60371;BME280;48550;40.588;49.684;2023-04-19T09:31:36;101594.66;;;19.32;64.54
60371;BME280;48550;40.588;49.684;2023-04-19T09:34:13;101591.19;;;19.52;64.06
60371;BME280;48550;40.588;49.684;2023-04-19T09:36:39;101589.22;;;19.43;62.90
60371;BME280;48550;40.588;49.684;2023-04-19T09:39:05;101579.19;;;19.58;62.87
60371;BME280;48550;40.588;49.684;2023-04-19T09:41:31;101569.13;;;19.64;61.43
60371;BME280;48550;40.588;49.684;2023-04-19T09:44:09;101579.44;;;19.42;61.88
60371;BME280;48550;40.588;49.684;2023-04-19T09:46:40;101577.84;;;19.56;61.90
60371;BME280;48550;40.588;49.684;2023-04-19T09:51:55;101569.13;;;19.69;62.03
60371;BME280;48550;40.588;49.684;2023-04-19T09:54:22;101563.66;;;19.79;60.92
60371;BME280;48550;40.588;49.684;2023-04-19T09:56:50;101565.31;;;19.75;61.31
60371;BME280;48550;40.588;49.684;2023-04-19T09:59:17;101571.31;;;19.77;61.79
60371;BME280;48550;40.588;49.684;2023-04-19T10:04:14;101574.03;;;19.77;62.22
60371;BME280;48550;40.588;49.684;2023-04-19T10:06:53;101559.03;;;19.85;61.25
60371;BME280;48550;40.588;49.684;2023-04-19T10:09:22;101558.47;;;19.88;60.66
60371;BME280;48550;40.588;49.684;2023-04-19T10:11:50;101549.50;;;19.87;62.22
60371;BME280;48550;40.588;49.684;2023-04-19T10:14:20;101542.72;;;19.64;64.05
60371;BME280;48550;40.588;49.684;2023-04-19T10:16:46;101552.78;;;19.54;64.79
60371;BME280;48550;40.588;49.684;2023-04-19T10:19:15;101546.16;;;19.19;65.87
60371;BME280;48550;40.588;49.684;2023-04-19T10:21:42;101546.41;;;19.02;66.58
60371;BME280;48550;40.588;49.684;2023-04-19T10:24:15;101553.75;;;18.97;67.26
60371;BME280;48550;40.588;49.684;2023-04-19T10:27:10;101541.75;;;18.93;65.74
60371;BME280;48550;40.588;49.684;2023-04-19T10:29:58;101537.13;;;18.93;65.09
60371;BME280;48550;40.588;49.684;2023-04-19T10:32:42;101541.75;;;18.83;65.67
60371;BME280;48550;40.588;49.684;2023-04-19T10:35:22;101533.03;;;18.81;65.44
60371;BME280;48550;40.588;49.684;2023-04-19T10:38:13;101526.25;;;18.88;65.06
60371;BME280;48550;40.588;49.684;2023-04-19T10:40:57;101527.06;;;18.84;62.94
60371;BME280;48550;40.588;49.684;2023-04-19T10:45:52;101516.47;;;18.97;60.99
60371;BME280;48550;40.588;49.684;2023-04-19T10:51:02;101508.03;;;18.94;61.18
60371;BME280;48550;40.588;49.684;2023-04-19T10:56:59;101475.91;;;18.81;61.51
60371;BME280;48550;40.588;49.684;2023-04-19T10:59:25;101471.28;;;18.76;62.25
60371;BME280;48550;40.588;49.684;2023-04-19T11:01:53;101472.13;;;18.87;62.75
60371;BME280;48550;40.588;49.684;2023-04-19T11:07:01;101473.75;;;18.98;61.27
60371;BME280;48550;40.588;49.684;2023-04-19T11:09:30;101477.59;;;19.12;60.84
60371;BME280;48550;40.588;49.684;2023-04-19T11:12:02;101472.69;;;19.09;60.34
60371;BME280;48550;40.588;49.684;2023-04-19T11:14:34;101470.78;;;19.04;61.09
60371;BME280;48550;40.588;49.684;2023-04-19T11:17:12;101473.50;;;18.99;61.49
60371;BME280;48550;40.588;49.684;2023-04-19T11:19:44;101479.75;;;19.10;59.75
60371;BME280;48550;40.588;49.684;2023-04-19T11:22:17;101478.41;;;19.08;59.67
60371;BME280;48550;40.588;49.684;2023-04-19T11:24:45;101474.84;;;19.02;59.76
60371;BME280;48550;40.588;49.684;2023-04-19T11:27:12;101459.34;;;18.97;59.68
60371;BME280;48550;40.588;49.684;2023-04-19T11:29:38;101465.06;;;18.96;59.54
60371;BME280;48550;40.588;49.684;2023-04-19T11:32:04;101459.09;;;19.19;57.91
60371;BME280;48550;40.588;49.684;2023-04-19T11:34:37;101452.81;;;19.19;58.63
60371;BME280;48550;40.588;49.684;2023-04-19T11:37:03;101449.84;;;19.10;56.93
60371;BME280;48550;40.588;49.684;2023-04-19T11:39:29;101455.81;;;18.97;55.66
60371;BME280;48550;40.588;49.684;2023-04-19T11:41:54;101443.56;;;18.79;56.54
60371;BME280;48550;40.588;49.684;2023-04-19T11:44:20;101456.09;;;19.00;57.03
60371;BME280;48550;40.588;49.684;2023-04-19T11:47:03;101453.63;;;19.09;56.90
60371;BME280;48550;40.588;49.684;2023-04-19T11:49:32;101445.47;;;19.14;56.13
60371;BME280;48550;40.588;49.684;2023-04-19T11:52:04;101439.50;;;18.97;55.02
60371;BME280;48550;40.588;49.684;2023-04-19T11:54:30;101440.56;;;18.86;55.12
60371;BME280;48550;40.588;49.684;2023-04-19T11:57:03;101440.56;;;18.81;56.30
60371;BME280;48550;40.588;49.684;2023-04-19T11:59:34;101428.84;;;18.70;56.61
60371;BME280;48550;40.588;49.684;2023-04-19T12:02:07;101420.16;;;18.78;55.17
60371;BME280;48550;40.588;49.684;2023-04-19T12:04:34;101405.75;;;18.83;54.79
60371;BME280;48550;40.588;49.684;2023-04-19T12:07:01;101403.84;;;18.73;54.09
60371;BME280;48550;40.588;49.684;2023-04-19T12:09:27;101385.63;;;18.84;53.64
60371;BME280;48550;40.588;49.684;2023-04-19T12:11:53;101399.75;;;18.81;53.66
60371;BME280;48550;40.588;49.684;2023-04-19T12:14:21;101398.13;;;18.75;53.14
60371;BME280;48550;40.588;49.684;2023-04-19T12:17:22;101410.53;;;18.55;52.87
60371;BME280;48550;40.588;49.684;2023-04-19T12:19:48;101415.47;;;18.58;53.70
60371;BME280;48550;40.588;49.684;2023-04-19T12:22:18;101424.41;;;18.54;53.85
60371;BME280;48550;40.588;49.684;2023-04-19T12:24:45;101430.94;;;18.53;54.28
60371;BME280;48550;40.588;49.684;2023-04-19T12:27:11;101423.00;;;18.36;54.58
60371;BME280;48550;40.588;49.684;2023-04-19T12:29:37;101412.66;;;18.33;54.09
60371;BME280;48550;40.588;49.684;2023-04-19T12:32:04;101409.69;;;18.34;54.41
60371;BME280;48550;40.588;49.684;2023-04-19T12:34:30;101417.28;;;18.32;54.40
60371;BME280;48550;40.588;49.684;2023-04-19T12:36:56;101392.56;;;18.34;54.11
60371;BME280;48550;40.588;49.684;2023-04-19T12:39:22;101382.78;;;18.38;54.43
60371;BME280;48550;40.588;49.684;2023-04-19T12:41:48;101383.88;;;18.32;54.68
60371;BME280;48550;40.588;49.684;2023-04-19T12:44:14;101371.63;;;18.24;55.01
60371;BME280;48550;40.588;49.684;2023-04-19T12:46:40;101367.56;;;18.32;55.30
60371;BME280;48550;40.588;49.684;2023-04-19T12:49:06;101373.00;;;18.37;54.74
60371;BME280;48550;40.588;49.684;2023-04-19T12:51:32;101377.34;;;18.28;53.02
60371;BME280;48550;40.588;49.684;2023-04-19T12:53:58;101380.84;;;18.23;53.34
60371;BME280;48550;40.588;49.684;2023-04-19T12:56:24;101380.81;;;18.13;52.98